Time;durP1;ratioP1;P1;durP2;ratioP2;P2;SDS_P1;SDS_P2;PMS_P1;PMS_P2;Temp;Humidity;BMP_temperature;BMP_pressure;BME280_temperature;BME280_humidity;BME280_pressure;Samples;Min_cycle;Max_cycle;Signal;HPM_P1;HPM_P2
2022/12/03 00:00:28;;;;;;;;;;;;;;;9.70;66.86;101047.03;4986486;28;19918;-80
2022/12/03 00:03:13;;;;;;;;;;;;;;;9.79;66.92;101042.50;5003529;28;19918;-80
2022/12/03 00:05:57;;;;;;;;;;;;;;;9.77;66.40;101042.00;4999306;28;19918;-80
2022/12/03 00:08:42;;;;;;;;;;;;;;;9.90;66.29;101038.50;4999253;28;19917;-80
2022/12/03 00:11:26;;;;;;;;;;;;;;;9.82;66.58;101033.75;4999485;28;19918;-80
2022/12/03 00:14:11;;;;;;;;;;;;;;;9.79;66.28;101035.16;4987113;28;19922;-80
2022/12/03 00:16:56;;;;;;;;;;;;;;;9.88;66.15;101035.25;4989224;28;19921;-80
2022/12/03 00:19:40;;;;;;;;;;;;;;;9.94;65.76;101041.41;4992887;28;20294;-80
2022/12/03 00:22:25;;;;;;;;;;;;;;;9.79;65.69;101034.38;4998097;28;19921;-79
2022/12/03 00:25:09;;;;;;;;;;;;;;;9.79;65.60;101032.47;4996605;28;19917;-79
2022/12/03 00:27:53;;;;;;;;;;;;;;;9.85;65.33;101033.16;4998141;28;19921;-79
2022/12/03 00:30:38;;;;;;;;;;;;;;;9.93;65.46;101031.63;4991840;28;19918;-79
2022/12/03 00:33:22;;;;;;;;;;;;;;;9.99;65.08;101031.25;4984775;28;19917;-80
2022/12/03 00:36:07;;;;;;;;;;;;;;;9.84;65.36;101023.41;4998100;28;19926;-80
2022/12/03 00:38:51;;;;;;;;;;;;;;;9.83;64.96;101019.06;4987485;28;19917;-79
2022/12/03 00:41:36;;;;;;;;;;;;;;;9.81;65.44;101010.41;4987289;28;19921;-79
2022/12/03 00:44:20;;;;;;;;;;;;;;;9.84;65.65;101010.63;4997142;28;20378;-81
2022/12/03 00:47:05;;;;;;;;;;;;;;;9.68;66.32;101003.88;5002765;28;19925;-78
2022/12/03 00:49:49;;;;;;;;;;;;;;;9.57;67.02;101007.09;4991938;28;19918;-78
2022/12/03 00:52:33;;;;;;;;;;;;;;;9.56;66.42;101010.91;4983211;28;20379;-78
2022/12/03 00:55:18;;;;;;;;;;;;;;;9.57;66.55;101007.91;4998441;28;20337;-78
2022/12/03 00:58:02;;;;;;;;;;;;;;;9.69;65.90;101016.38;4983798;28;19917;-78
2022/12/03 01:00:47;;;;;;;;;;;;;;;9.64;66.47;101013.75;5001872;28;19918;-78
2022/12/03 01:03:31;;;;;;;;;;;;;;;9.72;65.93;101015.75;4986769;28;19926;-78
2022/12/03 01:06:16;;;;;;;;;;;;;;;9.68;66.43;101016.66;4985887;28;19918;-78
2022/12/03 01:09:00;;;;;;;;;;;;;;;9.70;66.24;101017.94;4984179;28;20371;-78
2022/12/03 01:11:44;;;;;;;;;;;;;;;9.94;65.63;101022.38;4992858;28;19918;-78
2022/12/03 01:14:29;;;;;;;;;;;;;;;10.02;64.50;101018.94;4997927;28;19922;-78
2022/12/03 01:17:13;;;;;;;;;;;;;;;9.90;65.00;101024.09;4984146;28;19917;-78
2022/12/03 01:19:58;;;;;;;;;;;;;;;9.99;65.40;101023.09;4997421;28;19926;-78
2022/12/03 01:22:42;;;;;;;;;;;;;;;10.14;64.28;101028.19;4998023;28;19918;-78
2022/12/03 01:25:26;;;;;;;;;;;;;;;10.08;64.64;101026.69;5013052;28;19918;-78
2022/12/03 01:28:11;;;;;;;;;;;;;;;10.02;65.25;101022.47;4997464;28;19918;-78
2022/12/03 01:33:59;;;;;;;;;;;;;;;9.94;65.49;101031.34;4978419;28;19918;-78
2022/12/03 01:36:43;;;;;;;;;;;;;;;9.96;65.53;101026.38;4980338;28;19918;-78
2022/12/03 01:39:28;;;;;;;;;;;;;;;9.90;64.72;101024.09;4980741;28;19918;-78
2022/12/03 01:42:26;;;;;;;;;;;;;;;9.88;65.58;101021.69;4983790;28;19918;-78
2022/12/03 01:45:16;;;;;;;;;;;;;;;9.93;66.56;101021.56;4997076;28;19918;-78
2022/12/03 01:48:01;;;;;;;;;;;;;;;9.87;65.27;101025.50;4996942;28;19917;-78
2022/12/03 01:50:45;;;;;;;;;;;;;;;9.80;66.41;101016.97;4997010;28;19921;-78
2022/12/03 01:53:30;;;;;;;;;;;;;;;9.80;65.76;101008.81;4986134;28;19918;-78
2022/12/03 01:56:15;;;;;;;;;;;;;;;9.92;64.94;101017.25;4986067;28;19922;-78
2022/12/03 01:59:00;;;;;;;;;;;;;;;9.73;65.02;101016.56;4983760;28;19918;-78
2022/12/03 02:01:44;;;;;;;;;;;;;;;9.75;64.86;101012.41;4988726;28;19918;-78
2022/12/03 02:04:29;;;;;;;;;;;;;;;9.89;64.70;101009.72;4997002;28;19925;-78
2022/12/03 02:07:30;;;;;;;;;;;;;;;9.82;64.59;101009.31;4996519;28;19918;-79
2022/12/03 02:10:16;;;;;;;;;;;;;;;9.84;64.57;100996.25;4996766;28;19922;-79
2022/12/03 02:13:03;;;;;;;;;;;;;;;9.77;64.16;100995.81;4985399;28;19918;-78
2022/12/03 02:15:47;;;;;;;;;;;;;;;9.90;64.28;101008.63;4996278;28;19922;-79
2022/12/03 02:18:32;;;;;;;;;;;;;;;9.91;64.32;101006.69;4996925;28;19918;-78
2022/12/03 02:21:35;;;;;;;;;;;;;;;9.90;64.07;100999.66;4985397;28;19926;-79
2022/12/03 02:24:23;;;;;;;;;;;;;;;9.89;63.88;101007.00;4999200;28;20391;-78
2022/12/03 02:27:08;;;;;;;;;;;;;;;9.96;63.64;100999.22;5016772;28;19918;-79
2022/12/03 02:29:52;;;;;;;;;;;;;;;9.88;63.88;100998.03;4991018;28;20387;-79
2022/12/03 02:32:37;;;;;;;;;;;;;;;9.90;63.70;100992.31;4982553;28;20383;-79
2022/12/03 02:35:23;;;;;;;;;;;;;;;9.99;64.08;100987.78;4989013;28;19922;-79
2022/12/03 02:38:07;;;;;;;;;;;;;;;9.78;63.87;100981.97;4982660;28;19918;-79
2022/12/03 02:40:54;;;;;;;;;;;;;;;9.93;63.83;100980.84;4996925;28;19918;-79
2022/12/03 02:43:39;;;;;;;;;;;;;;;9.89;63.96;100971.69;4985830;28;19918;-78
2022/12/03 02:46:23;;;;;;;;;;;;;;;9.88;64.39;100978.22;4995757;28;19918;-78
2022/12/03 02:49:08;;;;;;;;;;;;;;;9.87;64.14;100979.31;4985112;28;20390;-79
2022/12/03 02:51:52;;;;;;;;;;;;;;;9.88;64.53;100970.88;4990163;28;20475;-80
2022/12/03 02:54:37;;;;;;;;;;;;;;;10.02;63.72;100973.56;5000451;28;19933;-79
2022/12/03 02:57:21;;;;;;;;;;;;;;;9.96;63.13;100971.25;5001419;28;19918;-79
2022/12/03 03:00:06;;;;;;;;;;;;;;;9.89;62.77;100966.25;5004806;28;19922;-79
2022/12/03 03:02:51;;;;;;;;;;;;;;;9.90;63.90;100976.03;4993439;28;19917;-79
2022/12/03 03:05:37;;;;;;;;;;;;;;;9.88;64.89;100975.50;5000492;28;19921;-79
2022/12/03 03:08:23;;;;;;;;;;;;;;;9.78;63.98;100975.72;4990798;28;19918;-79
2022/12/03 03:11:07;;;;;;;;;;;;;;;9.75;64.63;100974.41;4989021;28;19918;-78
2022/12/03 03:13:52;;;;;;;;;;;;;;;9.66;65.10;100968.06;5000322;28;19918;-78
2022/12/03 03:16:36;;;;;;;;;;;;;;;9.60;65.32;100968.50;5001575;28;20314;-78
2022/12/03 03:19:23;;;;;;;;;;;;;;;9.82;64.80;100965.84;4988912;28;19918;-78
2022/12/03 03:22:09;;;;;;;;;;;;;;;10.11;63.73;100974.44;4999414;28;19918;-78
2022/12/03 03:24:54;;;;;;;;;;;;;;;10.01;64.26;100963.81;4985724;28;19922;-78
2022/12/03 03:27:39;;;;;;;;;;;;;;;10.05;64.07;100964.81;4992102;28;19918;-78
2022/12/03 03:30:24;;;;;;;;;;;;;;;9.97;65.22;100970.97;4985500;28;19919;-78
2022/12/03 03:33:09;;;;;;;;;;;;;;;9.89;65.29;100971.69;4985419;28;19918;-78
2022/12/03 03:35:54;;;;;;;;;;;;;;;9.85;64.89;100976.91;4988076;28;20330;-78
2022/12/03 03:38:39;;;;;;;;;;;;;;;9.77;66.08;100972.19;4999512;28;20378;-78
2022/12/03 03:41:24;;;;;;;;;;;;;;;9.78;65.45;100973.81;4999293;28;19917;-78
2022/12/03 03:44:09;;;;;;;;;;;;;;;9.76;65.59;100983.34;4999742;28;19917;-79
2022/12/03 03:46:54;;;;;;;;;;;;;;;9.76;66.13;100978.72;4986145;28;20295;-78
2022/12/03 03:49:39;;;;;;;;;;;;;;;9.79;66.49;100977.34;5016899;28;19918;-78
2022/12/03 03:52:24;;;;;;;;;;;;;;;9.75;65.79;100974.41;5018592;28;19917;-78
2022/12/03 03:55:09;;;;;;;;;;;;;;;9.67;66.71;100966.97;5002662;28;19922;-78
2022/12/03 03:57:54;;;;;;;;;;;;;;;9.71;67.47;100967.97;4998537;28;19918;-78
2022/12/03 04:00:40;;;;;;;;;;;;;;;9.71;66.89;100959.03;5005483;28;19917;-78
2022/12/03 04:03:25;;;;;;;;;;;;;;;9.66;67.04;100965.34;5018923;28;20301;-79
2022/12/03 04:06:10;;;;;;;;;;;;;;;9.87;66.05;100958.41;5004948;28;19918;-78
2022/12/03 04:08:54;;;;;;;;;;;;;;;9.82;66.62;100957.69;4999668;28;19918;-78
2022/12/03 04:14:42;;;;;;;;;;;;;;;9.62;67.78;100953.50;4984542;28;19918;-79
2022/12/03 04:17:26;;;;;;;;;;;;;;;9.74;66.95;100953.00;4984381;28;20308;-78
2022/12/03 04:20:11;;;;;;;;;;;;;;;9.81;66.94;100950.66;4986883;28;19918;-78
2022/12/03 04:22:56;;;;;;;;;;;;;;;9.72;67.51;100953.28;5001494;28;19922;-78
2022/12/03 04:28:50;;;;;;;;;;;;;;;9.85;67.54;100957.13;4992373;28;19917;-80
2022/12/03 04:37:41;;;;;;;;;;;;;;;9.61;67.12;100945.66;5001951;28;19917;-80
2022/12/03 04:43:31;;;;;;;;;;;;;;;9.77;67.08;100944.22;4998791;28;19936;-79
2022/12/03 04:46:15;;;;;;;;;;;;;;;9.75;67.12;100939.09;4986533;28;19926;-80
2022/12/03 04:49:00;;;;;;;;;;;;;;;9.74;66.32;100939.41;5006157;28;19918;-80
2022/12/03 04:51:44;;;;;;;;;;;;;;;9.79;66.71;100931.97;4999697;28;19917;-78
2022/12/03 04:54:29;;;;;;;;;;;;;;;9.66;66.81;100940.13;4995204;28;19929;-78
2022/12/03 04:57:14;;;;;;;;;;;;;;;9.72;66.40;100936.19;4983307;28;19921;-77
2022/12/03 04:59:58;;;;;;;;;;;;;;;9.59;67.43;100939.75;4985238;28;19918;-78
2022/12/03 05:02:43;;;;;;;;;;;;;;;9.61;67.54;100941.03;4997352;28;19918;-78
2022/12/03 05:05:27;;;;;;;;;;;;;;;9.62;67.17;100939.94;4997702;28;20475;-78
2022/12/03 05:08:12;;;;;;;;;;;;;;;9.51;67.21;100943.13;4997372;28;19918;-78
2022/12/03 05:10:56;;;;;;;;;;;;;;;9.41;68.75;100936.81;4997396;28;19922;-78
2022/12/03 05:13:40;;;;;;;;;;;;;;;9.54;68.17;100935.22;4996769;28;19918;-78
2022/12/03 05:16:25;;;;;;;;;;;;;;;9.44;68.01;100930.00;4997570;28;19922;-78
2022/12/03 05:19:09;;;;;;;;;;;;;;;9.39;68.17;100933.63;4989171;28;20390;-78
2022/12/03 05:21:54;;;;;;;;;;;;;;;9.47;68.01;100934.00;4996328;28;19918;-77
2022/12/03 05:24:38;;;;;;;;;;;;;;;9.37;68.40;100935.81;4985356;28;19917;-78
2022/12/03 05:27:23;;;;;;;;;;;;;;;9.37;68.97;100930.38;4996984;28;19918;-79
2022/12/03 05:30:07;;;;;;;;;;;;;;;9.26;69.44;100931.69;4988972;28;19922;-78
2022/12/03 05:32:52;;;;;;;;;;;;;;;9.32;69.34;100935.91;4981339;28;19925;-77
2022/12/03 05:35:37;;;;;;;;;;;;;;;9.31;69.35;100937.03;4989916;28;19921;-78
2022/12/03 05:38:22;;;;;;;;;;;;;;;9.33;69.20;100932.09;4993067;28;19921;-78
2022/12/03 05:42:52;;;;;;;;;;;;;;;9.39;68.77;100938.25;4982375;28;19918;-78
2022/12/03 05:44:11;;;;;;;;;;;;;;;9.41;69.29;100941.44;4993582;28;19918;-78
2022/12/03 05:46:56;;;;;;;;;;;;;;;9.47;68.45;100928.56;4976939;28;19925;-78
2022/12/03 05:49:40;;;;;;;;;;;;;;;9.53;68.50;100933.59;4989581;28;20391;-78
2022/12/03 05:52:24;;;;;;;;;;;;;;;9.48;68.34;100931.00;4996277;28;19918;-78
2022/12/03 05:55:09;;;;;;;;;;;;;;;9.47;69.32;100936.72;4977349;28;19977;-78
2022/12/03 05:57:53;;;;;;;;;;;;;;;9.35;69.35;100932.59;4980818;28;20317;-79
2022/12/03 06:00:38;;;;;;;;;;;;;;;9.36;69.64;100941.53;4983652;28;19918;-79
2022/12/03 06:03:22;;;;;;;;;;;;;;;9.38;69.64;100928.47;4997052;28;19918;-80
2022/12/03 06:06:07;;;;;;;;;;;;;;;9.34;69.91;100932.91;5002085;28;19919;-77
2022/12/03 06:08:51;;;;;;;;;;;;;;;9.36;70.01;100933.41;4994856;28;19918;-78
2022/12/03 06:11:36;;;;;;;;;;;;;;;9.33;70.74;100934.00;4986853;28;19918;-78
2022/12/03 06:14:21;;;;;;;;;;;;;;;9.34;70.55;100931.00;4979220;28;19922;-78
2022/12/03 06:17:06;;;;;;;;;;;;;;;9.36;70.32;100926.06;4964818;28;20110;-79
2022/12/03 06:19:50;;;;;;;;;;;;;;;9.35;70.99;100927.16;4968852;28;20671;-79
2022/12/03 06:22:35;;;;;;;;;;;;;;;9.30;71.09;100924.53;4985929;28;19917;-79
2022/12/03 06:25:19;;;;;;;;;;;;;;;9.47;71.50;100923.16;4985565;28;19918;-78
2022/12/03 06:28:04;;;;;;;;;;;;;;;9.57;70.58;100931.88;4987311;28;19917;-78
2022/12/03 06:30:49;;;;;;;;;;;;;;;9.54;70.42;100923.56;4999705;28;19918;-77
2022/12/03 06:33:33;;;;;;;;;;;;;;;9.54;70.33;100928.97;4992421;28;19917;-77
2022/12/03 06:36:18;;;;;;;;;;;;;;;9.49;70.26;100924.47;4975024;28;19922;-77
2022/12/03 06:39:03;;;;;;;;;;;;;;;9.51;70.53;100924.13;4986033;28;19917;-77
2022/12/03 06:41:47;;;;;;;;;;;;;;;9.59;70.96;100920.72;4989235;28;20379;-77
2022/12/03 06:44:47;;;;;;;;;;;;;;;9.65;70.40;100922.25;4968449;28;20161;-79
2022/12/03 06:47:32;;;;;;;;;;;;;;;9.71;69.78;100927.25;4991475;28;19934;-78
2022/12/03 06:50:17;;;;;;;;;;;;;;;9.77;70.17;100922.50;4984976;28;19922;-78
2022/12/03 06:53:01;;;;;;;;;;;;;;;9.70;70.49;100920.19;4989153;28;19918;-78
2022/12/03 06:55:46;;;;;;;;;;;;;;;9.79;71.38;100925.72;4981924;28;20398;-77
2022/12/03 06:58:31;;;;;;;;;;;;;;;9.84;71.65;100928.34;4993012;28;19922;-77
2022/12/03 07:01:15;;;;;;;;;;;;;;;9.87;71.60;100911.41;4986149;28;19918;-79
2022/12/03 07:03:59;;;;;;;;;;;;;;;9.95;70.78;100913.44;4993694;28;19918;-77
2022/12/03 07:06:43;;;;;;;;;;;;;;;9.94;70.50;100914.53;4985320;28;19917;-78
2022/12/03 07:09:28;;;;;;;;;;;;;;;9.96;71.52;100908.78;5003942;28;19918;-78
2022/12/03 07:12:12;;;;;;;;;;;;;;;9.99;70.93;100919.84;4992172;28;20391;-79
2022/12/03 07:14:57;;;;;;;;;;;;;;;10.05;70.63;100921.34;4980549;28;19918;-79
2022/12/03 07:17:41;;;;;;;;;;;;;;;10.03;70.96;100920.84;4991123;28;19918;-79
2022/12/03 07:20:25;;;;;;;;;;;;;;;10.01;70.09;100914.91;4990612;28;19925;-79
2022/12/03 07:23:10;;;;;;;;;;;;;;;9.94;69.70;100919.16;4999089;28;19917;-80
2022/12/03 07:25:54;;;;;;;;;;;;;;;9.96;69.93;100920.44;4999484;28;19918;-80
2022/12/03 07:28:39;;;;;;;;;;;;;;;9.98;69.81;100918.25;4997260;28;19918;-78
2022/12/03 07:31:23;;;;;;;;;;;;;;;10.20;70.64;100914.78;4998143;28;19918;-79
2022/12/03 07:34:08;;;;;;;;;;;;;;;10.28;69.93;100914.84;4985638;28;19918;-79
2022/12/03 07:36:52;;;;;;;;;;;;;;;10.62;67.37;100917.00;4998931;28;19918;-79
2022/12/03 07:39:37;;;;;;;;;;;;;;;10.45;68.15;100913.38;4992301;28;20384;-79
2022/12/03 07:42:21;;;;;;;;;;;;;;;10.34;68.46;100914.72;5001905;28;19918;-79
2022/12/03 07:45:06;;;;;;;;;;;;;;;10.89;66.01;100915.25;4983503;28;20378;-78
2022/12/03 07:47:50;;;;;;;;;;;;;;;10.59;66.12;100911.38;4979878;28;19918;-78
2022/12/03 07:50:35;;;;;;;;;;;;;;;10.46;67.00;100910.34;4997958;28;19933;-78
2022/12/03 07:53:19;;;;;;;;;;;;;;;10.40;67.04;100902.63;4979657;28;19926;-79
2022/12/03 07:56:04;;;;;;;;;;;;;;;10.64;66.42;100903.09;4987554;28;19917;-79
2022/12/03 07:58:48;;;;;;;;;;;;;;;10.68;66.29;100914.97;4990679;28;20306;-80
2022/12/03 08:01:33;;;;;;;;;;;;;;;10.61;66.91;100909.97;4986156;28;19917;-79
2022/12/03 08:04:19;;;;;;;;;;;;;;;10.55;67.64;100911.22;4988508;28;19918;-80
2022/12/03 08:07:04;;;;;;;;;;;;;;;11.23;66.24;100909.94;4995174;28;20346;-78
2022/12/03 08:09:49;;;;;;;;;;;;;;;11.32;67.50;100918.16;5003221;28;19917;-79
2022/12/03 08:12:39;;;;;;;;;;;;;;;12.11;67.19;100927.00;4997618;28;19917;-80
2022/12/03 08:15:25;;;;;;;;;;;;;;;12.73;64.60;100916.53;4990510;28;19917;-79
2022/12/03 08:18:13;;;;;;;;;;;;;;;13.14;62.48;100917.88;4990611;28;19921;-79
2022/12/03 08:20:58;;;;;;;;;;;;;;;12.55;60.91;100912.22;4986521;28;19926;-79
2022/12/03 08:23:42;;;;;;;;;;;;;;;12.64;60.85;100921.22;4988010;28;19922;-78
2022/12/03 08:26:27;;;;;;;;;;;;;;;11.85;62.18;100915.25;4973588;28;19922;-78
2022/12/03 08:29:14;;;;;;;;;;;;;;;11.64;62.75;100909.59;4989228;28;19917;-79
2022/12/03 08:31:58;;;;;;;;;;;;;;;12.52;62.40;100912.06;4981591;28;19917;-78
2022/12/03 08:34:43;;;;;;;;;;;;;;;13.23;60.16;100908.53;4991414;28;20390;-79
2022/12/03 08:37:28;;;;;;;;;;;;;;;13.69;58.62;100913.09;4982078;28;19921;-80
2022/12/03 08:40:19;;;;;;;;;;;;;;;13.89;58.14;100907.97;4992232;28;19921;-79
2022/12/03 08:43:24;;;;;;;;;;;;;;;13.99;57.46;100905.66;4992692;28;19918;-81
2022/12/03 08:46:17;;;;;;;;;;;;;;;13.32;55.28;100891.28;4987056;28;19918;-79
2022/12/03 08:49:01;;;;;;;;;;;;;;;12.38;57.61;100893.16;4985583;28;19926;-76
2022/12/03 08:51:45;;;;;;;;;;;;;;;11.97;58.73;100890.94;4987922;28;20717;-77
2022/12/03 08:54:30;;;;;;;;;;;;;;;11.64;60.00;100887.78;4992216;28;19918;-77
2022/12/03 08:57:28;;;;;;;;;;;;;;;11.45;60.23;100884.56;4981610;28;19918;-77
2022/12/03 09:00:21;;;;;;;;;;;;;;;11.28;61.03;100879.84;4993644;28;19922;-77
2022/12/03 09:03:11;;;;;;;;;;;;;;;11.23;61.52;100881.91;4994937;28;19913;-77
2022/12/03 09:05:55;;;;;;;;;;;;;;;11.17;61.13;100880.47;4988360;28;19917;-78
2022/12/03 09:08:40;;;;;;;;;;;;;;;11.11;61.50;100877.91;5002903;28;19918;-77
2022/12/03 09:11:24;;;;;;;;;;;;;;;11.09;61.15;100877.41;4985973;28;19918;-77
2022/12/03 09:14:09;;;;;;;;;;;;;;;11.13;60.18;100877.56;4983034;28;19917;-78
2022/12/03 09:16:54;;;;;;;;;;;;;;;11.09;60.34;100882.84;4982956;28;19917;-77
2022/12/03 09:19:43;;;;;;;;;;;;;;;11.08;60.14;100883.16;4994403;28;19922;-77
2022/12/03 09:22:28;;;;;;;;;;;;;;;11.07;59.95;100879.63;4993885;28;19918;-77
2022/12/03 09:25:13;;;;;;;;;;;;;;;11.06;59.89;100882.69;4979690;28;19922;-77
2022/12/03 09:27:57;;;;;;;;;;;;;;;11.13;59.20;100881.09;4972840;28;20391;-77
2022/12/03 09:30:41;;;;;;;;;;;;;;;11.13;58.65;100880.28;4983785;28;19918;-77
2022/12/03 09:33:26;;;;;;;;;;;;;;;11.09;58.80;100874.69;4971707;28;19922;-77
2022/12/03 09:36:10;;;;;;;;;;;;;;;11.14;58.92;100873.72;4983989;28;20382;-77
2022/12/03 09:38:55;;;;;;;;;;;;;;;11.11;58.79;100877.91;4977546;28;20263;-77
2022/12/03 09:41:39;;;;;;;;;;;;;;;11.11;59.12;100871.66;4982999;28;19918;-77
2022/12/03 09:44:24;;;;;;;;;;;;;;;11.15;58.70;100876.16;4975558;28;19918;-78
2022/12/03 09:47:09;;;;;;;;;;;;;;;11.13;58.57;100866.69;4983988;28;19918;-77
2022/12/03 09:49:54;;;;;;;;;;;;;;;11.09;58.70;100871.16;4986628;28;19922;-77
2022/12/03 09:52:39;;;;;;;;;;;;;;;11.05;58.98;100862.81;4975338;28;19918;-77
2022/12/03 09:55:25;;;;;;;;;;;;;;;11.07;58.94;100857.06;4981856;28;19918;-77
2022/12/03 09:58:11;;;;;;;;;;;;;;;11.11;58.77;100858.84;4975381;28;19925;-77
2022/12/03 10:00:56;;;;;;;;;;;;;;;11.13;58.76;100853.88;4986690;28;20398;-77
2022/12/03 10:03:46;;;;;;;;;;;;;;;11.16;59.16;100844.28;4982847;28;19917;-76
2022/12/03 10:06:30;;;;;;;;;;;;;;;11.17;59.10;100848.63;5006171;28;19917;-77
2022/12/03 10:09:19;;;;;;;;;;;;;;;11.18;59.67;100847.47;4989801;28;19918;-76
2022/12/03 10:12:04;;;;;;;;;;;;;;;11.20;59.71;100839.81;4989238;28;20326;-77
2022/12/03 10:14:49;;;;;;;;;;;;;;;11.23;60.05;100832.91;4994147;28;20415;-77
2022/12/03 10:17:34;;;;;;;;;;;;;;;11.26;60.04;100832.31;4998612;28;19922;-77
2022/12/03 10:20:20;;;;;;;;;;;;;;;11.29;60.25;100835.19;4985444;28;20394;-77
2022/12/03 10:23:04;;;;;;;;;;;;;;;11.30;60.20;100838.72;4976274;28;20386;-77
2022/12/03 10:25:55;;;;;;;;;;;;;;;11.15;60.13;100821.72;4978204;28;19917;-77
2022/12/03 10:28:41;;;;;;;;;;;;;;;11.21;60.27;100835.97;4975773;28;19918;-77
2022/12/03 10:31:34;;;;;;;;;;;;;;;11.24;60.41;100832.63;4976042;28;20402;-77
2022/12/03 10:34:23;;;;;;;;;;;;;;;11.27;60.76;100833.91;4988683;28;19926;-77
2022/12/03 10:37:10;;;;;;;;;;;;;;;11.34;60.28;100834.22;4980751;28;20385;-77
2022/12/03 10:39:58;;;;;;;;;;;;;;;11.35;60.93;100835.84;4987865;28;19930;-77
2022/12/03 10:42:43;;;;;;;;;;;;;;;11.33;61.14;100833.44;4980484;28;20378;-77
2022/12/03 10:45:27;;;;;;;;;;;;;;;11.37;60.16;100828.19;4981892;28;19922;-77
2022/12/03 10:48:15;;;;;;;;;;;;;;;11.37;59.80;100820.00;4985596;28;19918;-77
2022/12/03 10:51:02;;;;;;;;;;;;;;;11.48;59.58;100824.81;4985809;28;19917;-77
2022/12/03 10:53:48;;;;;;;;;;;;;;;11.52;59.40;100820.34;4980774;28;19918;-77
2022/12/03 10:56:32;;;;;;;;;;;;;;;11.51;59.43;100823.38;4984498;28;20378;-77
2022/12/03 10:59:19;;;;;;;;;;;;;;;11.51;59.25;100826.09;4993172;28;20303;-77
2022/12/03 11:02:06;;;;;;;;;;;;;;;11.53;59.03;100837.47;4984617;28;19917;-77
2022/12/03 11:04:52;;;;;;;;;;;;;;;11.54;59.80;100831.72;4975314;28;19918;-79
2022/12/03 11:07:37;;;;;;;;;;;;;;;11.54;60.24;100836.34;4985098;28;19918;-77
2022/12/03 11:10:22;;;;;;;;;;;;;;;11.55;60.59;100841.50;4992153;28;19918;-77
2022/12/03 11:13:27;;;;;;;;;;;;;;;11.55;60.81;100846.94;4978536;28;19922;-79
2022/12/03 11:16:12;;;;;;;;;;;;;;;11.57;60.39;100850.16;4986096;28;19918;-77
2022/12/03 11:18:57;;;;;;;;;;;;;;;11.53;61.21;100842.91;4991877;28;19922;-78
2022/12/03 11:22:00;;;;;;;;;;;;;;;11.45;62.76;100838.28;4984424;28;19917;-78
2022/12/03 11:24:45;;;;;;;;;;;;;;;11.35;65.49;100823.03;4996175;28;19917;-78
2022/12/03 11:27:29;;;;;;;;;;;;;;;11.28;66.83;100825.41;4985152;28;19918;-77
2022/12/03 11:30:33;;;;;;;;;;;;;;;11.19;66.07;100823.78;4996752;28;19917;-79
2022/12/03 11:33:23;;;;;;;;;;;;;;;11.12;66.71;100829.72;4987454;28;19922;-77
2022/12/03 11:36:10;;;;;;;;;;;;;;;11.15;67.07;100813.56;4984809;28;19917;-78
2022/12/03 11:38:54;;;;;;;;;;;;;;;11.18;66.92;100811.28;4990254;28;19922;-77
2022/12/03 11:41:39;;;;;;;;;;;;;;;11.19;67.21;100804.75;4989711;28;19918;-77
2022/12/03 11:44:28;;;;;;;;;;;;;;;11.17;67.49;100796.09;4997546;28;19917;-78
2022/12/03 11:47:13;;;;;;;;;;;;;;;11.10;67.88;100800.09;4981913;28;19926;-78
2022/12/03 11:49:58;;;;;;;;;;;;;;;11.03;67.56;100802.47;4992138;28;19929;-78
2022/12/03 11:52:43;;;;;;;;;;;;;;;11.08;67.29;100796.06;4991220;28;19918;-77
2022/12/03 11:55:39;;;;;;;;;;;;;;;11.07;67.29;100794.50;4996060;28;20394;-77
2022/12/03 11:58:23;;;;;;;;;;;;;;;11.13;69.36;100791.28;4994803;28;19917;-78
2022/12/03 12:01:08;;;;;;;;;;;;;;;11.09;69.24;100787.59;4979708;28;20875;-78
2022/12/03 12:03:52;;;;;;;;;;;;;;;11.08;69.95;100783.25;4993408;28;19925;-77
2022/12/03 12:06:41;;;;;;;;;;;;;;;11.05;70.06;100783.91;4985233;28;19918;-77
2022/12/03 12:09:44;;;;;;;;;;;;;;;10.99;70.34;100787.88;4988457;28;19918;-77
2022/12/03 12:12:36;;;;;;;;;;;;;;;11.05;71.11;100785.81;4976340;28;19917;-77
2022/12/03 12:15:41;;;;;;;;;;;;;;;10.97;70.22;100784.66;4994260;28;19918;-77
2022/12/03 12:18:47;;;;;;;;;;;;;;;11.09;70.33;100784.06;4988181;28;20286;-78
2022/12/03 12:21:41;;;;;;;;;;;;;;;11.02;71.25;100776.34;4988236;28;20397;-78
2022/12/03 12:24:46;;;;;;;;;;;;;;;11.03;71.15;100777.16;4995042;28;19918;-77
2022/12/03 12:27:48;;;;;;;;;;;;;;;10.95;70.04;100772.50;4993338;28;19926;-80
2022/12/03 12:30:32;;;;;;;;;;;;;;;10.95;70.42;100776.03;4991044;28;19922;-78
2022/12/03 12:33:22;;;;;;;;;;;;;;;10.93;70.11;100772.00;4994130;28;19917;-78
2022/12/03 12:36:09;;;;;;;;;;;;;;;11.02;69.75;100770.91;4982589;28;19917;-78
2022/12/03 12:38:54;;;;;;;;;;;;;;;11.04;70.04;100767.88;4980725;28;19922;-78
2022/12/03 12:41:39;;;;;;;;;;;;;;;10.96;70.56;100766.75;4978734;28;19918;-77
2022/12/03 12:44:25;;;;;;;;;;;;;;;11.01;70.72;100766.63;4984478;28;19918;-77
2022/12/03 12:47:11;;;;;;;;;;;;;;;11.00;71.03;100764.22;4999622;28;19918;-78
2022/12/03 12:49:56;;;;;;;;;;;;;;;10.96;69.80;100761.31;4989170;28;19917;-78
2022/12/03 12:53:01;;;;;;;;;;;;;;;10.95;71.65;100756.19;4986140;28;19922;-77
2022/12/03 12:55:47;;;;;;;;;;;;;;;11.00;67.93;100756.03;4980513;28;19918;-79
2022/12/03 12:58:32;;;;;;;;;;;;;;;11.09;66.87;100749.50;4986667;28;19918;-78
2022/12/03 13:01:25;;;;;;;;;;;;;;;11.16;66.51;100751.75;4983813;28;19921;-78
2022/12/03 13:04:11;;;;;;;;;;;;;;;11.18;66.30;100740.53;4994327;28;20378;-77
2022/12/03 13:06:55;;;;;;;;;;;;;;;11.15;66.31;100744.72;4996755;28;20298;-78
2022/12/03 13:09:40;;;;;;;;;;;;;;;11.27;65.70;100741.38;4989420;28;19918;-77
2022/12/03 13:12:25;;;;;;;;;;;;;;;11.33;65.49;100740.88;4993141;28;19918;-78
2022/12/03 13:15:30;;;;;;;;;;;;;;;11.28;64.94;100737.50;4994791;28;19918;-78
2022/12/03 13:18:24;;;;;;;;;;;;;;;11.35;64.65;100732.38;4980875;28;19917;-78
2022/12/03 13:21:18;;;;;;;;;;;;;;;11.34;64.38;100742.47;4980493;28;19922;-77
2022/12/03 13:24:23;;;;;;;;;;;;;;;11.30;64.12;100735.28;4994780;28;19918;-77
2022/12/03 13:27:20;;;;;;;;;;;;;;;11.28;63.23;100734.78;4982554;28;19918;-78
2022/12/03 13:30:08;;;;;;;;;;;;;;;11.32;63.39;100739.28;4993967;28;19917;-78
2022/12/03 13:32:53;;;;;;;;;;;;;;;11.33;63.03;100734.63;4993138;28;19918;-78
2022/12/03 13:35:38;;;;;;;;;;;;;;;11.40;63.12;100730.31;4993805;28;19918;-78
2022/12/03 13:38:24;;;;;;;;;;;;;;;11.42;62.58;100727.28;5015282;23;19926;-79
2022/12/03 13:42:37;;;;;;;;;;;;;;;11.42;62.44;100719.91;5000717;28;19922;-79
2022/12/03 13:44:18;;;;;;;;;;;;;;;11.46;62.19;100715.44;5022657;28;19917;-83
2022/12/03 13:47:18;;;;;;;;;;;;;;;11.41;62.27;100718.31;5009394;28;19921;-80
2022/12/03 13:50:14;;;;;;;;;;;;;;;11.52;61.39;100716.06;5008713;28;19921;-80
2022/12/03 13:53:01;;;;;;;;;;;;;;;11.48;62.08;100715.09;5018582;28;19917;-79
2022/12/03 13:55:47;;;;;;;;;;;;;;;11.53;63.91;100717.63;5018670;28;20200;-79
2022/12/03 13:58:31;;;;;;;;;;;;;;;11.47;64.11;100718.94;5012961;28;19925;-79
2022/12/03 14:01:15;;;;;;;;;;;;;;;11.51;64.63;100719.91;5018612;28;20386;-80
2022/12/03 14:04:01;;;;;;;;;;;;;;;11.52;65.10;100716.06;5012834;28;19921;-80
2022/12/03 14:06:46;;;;;;;;;;;;;;;11.46;64.86;100718.16;5018598;28;19917;-79
2022/12/03 14:09:30;;;;;;;;;;;;;;;11.52;63.90;100713.34;5018360;28;19917;-80
2022/12/03 14:12:24;;;;;;;;;;;;;;;11.58;63.59;100720.19;5012747;28;20282;-79
2022/12/03 14:15:11;;;;;;;;;;;;;;;11.52;63.15;100716.06;5010685;28;19918;-80
2022/12/03 14:17:56;;;;;;;;;;;;;;;11.58;62.54;100722.94;5013672;28;19921;-80
2022/12/03 14:20:40;;;;;;;;;;;;;;;11.52;62.29;100719.59;5002472;28;20390;-79
2022/12/03 14:23:25;;;;;;;;;;;;;;;11.64;62.02;100729.00;4993068;28;19918;-80
2022/12/03 14:26:09;;;;;;;;;;;;;;;11.65;62.05;100719.72;4998837;28;20302;-79
2022/12/03 14:28:53;;;;;;;;;;;;;;;11.53;63.27;100729.34;4992908;28;19921;-79
2022/12/03 14:31:38;;;;;;;;;;;;;;;11.54;64.67;100736.41;4996891;28;20298;-80
2022/12/03 14:34:22;;;;;;;;;;;;;;;11.53;65.48;100739.44;4998618;28;20279;-80
2022/12/03 14:37:08;;;;;;;;;;;;;;;11.44;66.52;100739.44;4992676;28;19926;-80